sensor_id;sensor_type;location;lat;lon;timestamp;pressure;altitude;pressure_sealevel;temperature;humidity
44765;BME280;30484;52.382;5.260;2023-04-03T00:01:45;103225.22;;;7.50;100.00
44765;BME280;30484;52.382;5.260;2023-04-03T00:04:13;103213.66;;;7.47;100.00
44765;BME280;30484;52.382;5.260;2023-04-03T00:06:41;103218.09;;;7.54;100.00
44765;BME280;30484;52.382;5.260;2023-04-03T00:09:09;103224.31;;;7.34;100.00
44765;BME280;30484;52.382;5.260;2023-04-03T00:11:39;103227.84;;;7.24;100.00
44765;BME280;30484;52.382;5.260;2023-04-03T00:14:07;103222.44;;;7.04;100.00
44765;BME280;30484;52.382;5.260;2023-04-03T00:16:36;103219.91;;;7.42;100.00
44765;BME280;30484;52.382;5.260;2023-04-03T00:19:04;103219.88;;;7.27;100.00
44765;BME280;30484;52.382;5.260;2023-04-03T00:21:33;103231.34;;;7.07;100.00
44765;BME280;30484;52.382;5.260;2023-04-03T00:24:01;103236.69;;;7.20;100.00
44765;BME280;30484;52.382;5.260;2023-04-03T00:26:30;103226.06;;;7.32;100.00
44765;BME280;30484;52.382;5.260;2023-04-03T00:28:59;103234.97;;;7.53;100.00
44765;BME280;30484;52.382;5.260;2023-04-03T00:31:28;103233.16;;;7.41;100.00
44765;BME280;30484;52.382;5.260;2023-04-03T00:33:56;103226.09;;;7.43;100.00
44765;BME280;30484;52.382;5.260;2023-04-03T00:36:26;103238.38;;;6.98;100.00
44765;BME280;30484;52.382;5.260;2023-04-03T00:38:54;103240.25;;;7.40;100.00
44765;BME280;30484;52.382;5.260;2023-04-03T00:41:23;103236.69;;;7.34;100.00
44765;BME280;30484;52.382;5.260;2023-04-03T00:43:52;103234.00;;;7.12;100.00
44765;BME280;30484;52.382;5.260;2023-04-03T00:46:21;103243.75;;;7.18;100.00
44765;BME280;30484;52.382;5.260;2023-04-03T00:48:50;103237.56;;;7.25;100.00
44765;BME280;30484;52.382;5.260;2023-04-03T00:51:24;103227.75;;;6.90;100.00
44765;BME280;30484;52.382;5.260;2023-04-03T00:53:56;103236.69;;;7.26;100.00
44765;BME280;30484;52.382;5.260;2023-04-03T00:56:27;103240.19;;;7.09;100.00
44765;BME280;30484;52.382;5.260;2023-04-03T00:58:59;103233.13;;;7.21;100.00
44765;BME280;30484;52.382;5.260;2023-04-03T01:01:31;103237.56;;;7.13;100.00
44765;BME280;30484;52.382;5.260;2023-04-03T01:04:00;103244.63;;;7.12;100.00
44765;BME280;30484;52.382;5.260;2023-04-03T01:06:36;103246.38;;;6.99;100.00
44765;BME280;30484;52.382;5.260;2023-04-03T01:09:04;103247.22;;;6.95;100.00
44765;BME280;30484;52.382;5.260;2023-04-03T01:11:33;103246.34;;;6.91;100.00
44765;BME280;30484;52.382;5.260;2023-04-03T01:14:01;103243.69;;;6.87;100.00
44765;BME280;30484;52.382;5.260;2023-04-03T01:16:31;103245.50;;;7.06;100.00
44765;BME280;30484;52.382;5.260;2023-04-03T01:19:00;103244.63;;;7.06;100.00
44765;BME280;30484;52.382;5.260;2023-04-03T01:22:02;103243.66;;;6.84;100.00
44765;BME280;30484;52.382;5.260;2023-04-03T01:24:35;103249.88;;;6.94;100.00
44765;BME280;30484;52.382;5.260;2023-04-03T01:27:08;103244.56;;;6.90;100.00
44765;BME280;30484;52.382;5.260;2023-04-03T01:29:39;103252.53;;;6.90;100.00
44765;BME280;30484;52.382;5.260;2023-04-03T01:32:09;103247.22;;;6.92;100.00
44765;BME280;30484;52.382;5.260;2023-04-03T01:34:38;103255.22;;;6.97;100.00
44765;BME280;30484;52.382;5.260;2023-04-03T01:37:06;103252.59;;;7.01;100.00
44765;BME280;30484;52.382;5.260;2023-04-03T01:39:34;103239.25;;;6.97;100.00
44765;BME280;30484;52.382;5.260;2023-04-03T01:42:03;103250.75;;;6.82;100.00
44765;BME280;30484;52.382;5.260;2023-04-03T01:44:32;103248.84;;;6.53;100.00
44765;BME280;30484;52.382;5.260;2023-04-03T01:47:00;103245.28;;;6.52;100.00
44765;BME280;30484;52.382;5.260;2023-04-03T01:49:30;103245.41;;;6.79;100.00
44765;BME280;30484;52.382;5.260;2023-04-03T01:51:58;103248.06;;;6.76;100.00
44765;BME280;30484;52.382;5.260;2023-04-03T01:54:26;103248.75;;;6.36;100.00
44765;BME280;30484;52.382;5.260;2023-04-03T01:56:54;103252.44;;;6.67;100.00
44765;BME280;30484;52.382;5.260;2023-04-03T01:59:23;103254.25;;;6.74;100.00
44765;BME280;30484;52.382;5.260;2023-04-03T02:01:51;103258.50;;;6.38;100.00
44765;BME280;30484;52.382;5.260;2023-04-03T02:04:21;103255.09;;;6.66;100.00
44765;BME280;30484;52.382;5.260;2023-04-03T02:06:51;103254.25;;;6.71;100.00
44765;BME280;30484;52.382;5.260;2023-04-03T02:09:20;103255.13;;;6.70;100.00
44765;BME280;30484;52.382;5.260;2023-04-03T02:11:48;103254.22;;;6.68;100.00
44765;BME280;30484;52.382;5.260;2023-04-03T02:14:16;103244.44;;;6.61;100.00
44765;BME280;30484;52.382;5.260;2023-04-03T02:16:45;103253.91;;;6.16;100.00
44765;BME280;30484;52.382;5.260;2023-04-03T02:19:13;103244.28;;;6.32;100.00
44765;BME280;30484;52.382;5.260;2023-04-03T02:21:42;103244.09;;;6.04;100.00
44765;BME280;30484;52.382;5.260;2023-04-03T02:24:11;103253.22;;;6.49;100.00
44765;BME280;30484;52.382;5.260;2023-04-03T02:26:39;103257.59;;;6.43;100.00
44765;BME280;30484;52.382;5.260;2023-04-03T02:29:08;103266.50;;;6.49;100.00
44765;BME280;30484;52.382;5.260;2023-04-03T02:31:36;103267.34;;;6.41;100.00
44765;BME280;30484;52.382;5.260;2023-04-03T02:34:04;103270.94;;;6.47;100.00
44765;BME280;30484;52.382;5.260;2023-04-03T02:36:33;103263.59;;;6.08;100.00
44765;BME280;30484;52.382;5.260;2023-04-03T02:39:01;103269.06;;;6.37;100.00
44765;BME280;30484;52.382;5.260;2023-04-03T02:41:31;103276.19;;;6.43;100.00
44765;BME280;30484;52.382;5.260;2023-04-03T02:44:03;103274.38;;;6.32;100.00
44765;BME280;30484;52.382;5.260;2023-04-03T02:46:32;103274.34;;;6.25;100.00
44765;BME280;30484;52.382;5.260;2023-04-03T02:49:00;103280.38;;;6.07;100.00
44765;BME280;30484;52.382;5.260;2023-04-03T02:51:29;103290.19;;;6.17;100.00
44765;BME280;30484;52.382;5.260;2023-04-03T02:53:57;103279.53;;;6.09;100.00
44765;BME280;30484;52.382;5.260;2023-04-03T02:56:25;103277.88;;;6.30;100.00
44765;BME280;30484;52.382;5.260;2023-04-03T02:58:55;103274.19;;;6.06;100.00
44765;BME280;30484;52.382;5.260;2023-04-03T03:01:24;103283.16;;;6.22;100.00
44765;BME280;30484;52.382;5.260;2023-04-03T03:03:54;103284.94;;;6.21;100.00
44765;BME280;30484;52.382;5.260;2023-04-03T03:06:22;103292.88;;;6.20;100.00
44765;BME280;30484;52.382;5.260;2023-04-03T03:08:50;103295.56;;;6.25;100.00
44765;BME280;30484;52.382;5.260;2023-04-03T03:11:19;103292.00;;;6.21;100.00
44765;BME280;30484;52.382;5.260;2023-04-03T03:13:47;103297.25;;;6.12;100.00
44765;BME280;30484;52.382;5.260;2023-04-03T03:16:17;103301.66;;;6.13;100.00
44765;BME280;30484;52.382;5.260;2023-04-03T03:18:45;103303.31;;;5.98;100.00
44765;BME280;30484;52.382;5.260;2023-04-03T03:21:14;103301.50;;;5.96;100.00
44765;BME280;30484;52.382;5.260;2023-04-03T03:23:42;103301.59;;;6.02;100.00
44765;BME280;30484;52.382;5.260;2023-04-03T03:26:10;103303.41;;;6.08;100.00
44765;BME280;30484;52.382;5.260;2023-04-03T03:28:39;103296.88;;;5.75;100.00
44765;BME280;30484;52.382;5.260;2023-04-03T03:31:09;103302.25;;;5.81;100.00
44765;BME280;30484;52.382;5.260;2023-04-03T03:33:39;103305.75;;;5.80;100.00
44765;BME280;30484;52.382;5.260;2023-04-03T03:36:08;103298.75;;;5.86;100.00
44765;BME280;30484;52.382;5.260;2023-04-03T03:38:36;103312.00;;;5.82;100.00
44765;BME280;30484;52.382;5.260;2023-04-03T03:41:05;103308.41;;;5.80;100.00
44765;BME280;30484;52.382;5.260;2023-04-03T03:43:33;103307.66;;;5.93;100.00
44765;BME280;30484;52.382;5.260;2023-04-03T03:46:02;103318.84;;;5.61;100.00
44765;BME280;30484;52.382;5.260;2023-04-03T03:48:30;103307.38;;;5.62;100.00
44765;BME280;30484;52.382;5.260;2023-04-03T03:51:00;103312.78;;;5.72;100.00
44765;BME280;30484;52.382;5.260;2023-04-03T03:53:28;103308.41;;;5.80;100.00
44765;BME280;30484;52.382;5.260;2023-04-03T03:55:56;103318.78;;;5.55;100.00
44765;BME280;30484;52.382;5.260;2023-04-03T03:58:25;103315.28;;;5.56;100.00
44765;BME280;30484;52.382;5.260;2023-04-03T04:00:53;103314.47;;;5.66;100.00
44765;BME280;30484;52.382;5.260;2023-04-03T04:03:22;103310.06;;;5.68;100.00
44765;BME280;30484;52.382;5.260;2023-04-03T04:05:51;103308.97;;;5.45;100.00
44765;BME280;30484;52.382;5.260;2023-04-03T04:08:21;103317.97;;;5.62;100.00
44765;BME280;30484;52.382;5.260;2023-04-03T04:10:49;103318.00;;;5.64;100.00
44765;BME280;30484;52.382;5.260;2023-04-03T04:13:17;103313.19;;;5.27;100.00
44765;BME280;30484;52.382;5.260;2023-04-03T04:15:46;103317.00;;;5.54;100.00
44765;BME280;30484;52.382;5.260;2023-04-03T04:18:14;103327.56;;;5.51;100.00
44765;BME280;30484;52.382;5.260;2023-04-03T04:20:44;103326.72;;;5.52;100.00
44765;BME280;30484;52.382;5.260;2023-04-03T04:23:13;103325.94;;;5.62;100.00
44765;BME280;30484;52.382;5.260;2023-04-03T04:25:44;103320.59;;;5.59;100.00
44765;BME280;30484;52.382;5.260;2023-04-03T04:28:13;103321.28;;;5.41;100.00
44765;BME280;30484;52.382;5.260;2023-04-03T04:30:42;103329.41;;;5.55;100.00
44765;BME280;30484;52.382;5.260;2023-04-03T04:33:10;103323.06;;;5.42;100.00
44765;BME280;30484;52.382;5.260;2023-04-03T04:35:38;103326.66;;;5.46;100.00
44765;BME280;30484;52.382;5.260;2023-04-03T04:38:07;103325.78;;;5.50;100.00
44765;BME280;30484;52.382;5.260;2023-04-03T04:40:36;103314.34;;;5.52;100.00
44765;BME280;30484;52.382;5.260;2023-04-03T04:43:06;103319.53;;;5.42;100.00
44765;BME280;30484;52.382;5.260;2023-04-03T04:45:34;103312.25;;;5.22;100.00
44765;BME280;30484;52.382;5.260;2023-04-03T04:48:03;103323.78;;;5.27;100.00
44765;BME280;30484;52.382;5.260;2023-04-03T04:50:32;103316.78;;;5.32;100.00
44765;BME280;30484;52.382;5.260;2023-04-03T04:53:00;103329.94;;;5.23;100.00
44765;BME280;30484;52.382;5.260;2023-04-03T04:55:28;103335.44;;;5.40;100.00
44765;BME280;30484;52.382;5.260;2023-04-03T04:57:57;103338.09;;;5.42;100.00
44765;BME280;30484;52.382;5.260;2023-04-03T05:00:27;103334.44;;;5.30;100.00
44765;BME280;30484;52.382;5.260;2023-04-03T05:02:55;103327.34;;;5.29;100.00
44765;BME280;30484;52.382;5.260;2023-04-03T05:05:23;103335.13;;;5.17;100.00
44765;BME280;30484;52.382;5.260;2023-04-03T05:07:52;103346.84;;;5.34;100.00
44765;BME280;30484;52.382;5.260;2023-04-03T05:10:20;103350.31;;;5.27;100.00
44765;BME280;30484;52.382;5.260;2023-04-03T05:12:48;103346.78;;;5.31;100.00
44765;BME280;30484;52.382;5.260;2023-04-03T05:15:17;103353.91;;;5.35;100.00
44765;BME280;30484;52.382;5.260;2023-04-03T05:17:47;103339.72;;;5.29;100.00
44765;BME280;30484;52.382;5.260;2023-04-03T05:20:15;103349.28;;;5.17;100.00
44765;BME280;30484;52.382;5.260;2023-04-03T05:22:43;103343.97;;;5.16;100.00
44765;BME280;30484;52.382;5.260;2023-04-03T05:25:12;103355.53;;;5.23;100.00
44765;BME280;30484;52.382;5.260;2023-04-03T05:27:40;103359.22;;;5.35;100.00
44765;BME280;30484;52.382;5.260;2023-04-03T05:30:10;103354.66;;;5.22;100.00
44765;BME280;30484;52.382;5.260;2023-04-03T05:32:40;103360.91;;;5.27;100.00
44765;BME280;30484;52.382;5.260;2023-04-03T05:35:14;103366.13;;;5.21;100.00
44765;BME280;30484;52.382;5.260;2023-04-03T05:37:43;103360.78;;;5.18;100.00
44765;BME280;30484;52.382;5.260;2023-04-03T05:40:12;103369.78;;;5.32;100.00
44765;BME280;30484;52.382;5.260;2023-04-03T05:42:42;103367.25;;;5.42;100.00
44765;BME280;30484;52.382;5.260;2023-04-03T05:45:11;103362.69;;;5.31;100.00
44765;BME280;30484;52.382;5.260;2023-04-03T05:47:39;103369.78;;;5.32;100.00
44765;BME280;30484;52.382;5.260;2023-04-03T05:50:08;103363.47;;;5.21;100.00
44765;BME280;30484;52.382;5.260;2023-04-03T05:52:42;103371.75;;;5.46;100.00
44765;BME280;30484;52.382;5.260;2023-04-03T05:55:13;103381.34;;;5.38;100.00
44765;BME280;30484;52.382;5.260;2023-04-03T05:57:41;103375.22;;;5.42;100.00
44765;BME280;30484;52.382;5.260;2023-04-03T06:00:14;103385.75;;;5.37;100.00
44765;BME280;30484;52.382;5.260;2023-04-03T06:02:43;103373.22;;;5.25;100.00
44765;BME280;30484;52.382;5.260;2023-04-03T06:05:12;103385.94;;;5.52;100.00
44765;BME280;30484;52.382;5.260;2023-04-03T06:07:43;103377.25;;;5.64;100.00
44765;BME280;30484;52.382;5.260;2023-04-03T06:10:12;103386.91;;;5.58;100.00
44765;BME280;30484;52.382;5.260;2023-04-03T06:12:40;103396.53;;;5.51;100.00
44765;BME280;30484;52.382;5.260;2023-04-03T06:15:09;103393.25;;;5.74;100.00
44765;BME280;30484;52.382;5.260;2023-04-03T06:17:38;103392.69;;;6.02;100.00
44765;BME280;30484;52.382;5.260;2023-04-03T06:20:08;103398.91;;;6.01;100.00
44765;BME280;30484;52.382;5.260;2023-04-03T06:22:36;103407.00;;;6.18;100.00
44765;BME280;30484;52.382;5.260;2023-04-03T06:25:07;103391.97;;;6.16;100.00
44765;BME280;30484;52.382;5.260;2023-04-03T06:27:37;103398.13;;;6.15;100.00
44765;BME280;30484;52.382;5.260;2023-04-03T06:30:07;103413.63;;;6.68;100.00
44765;BME280;30484;52.382;5.260;2023-04-03T06:32:36;103404.72;;;6.63;100.00
44765;BME280;30484;52.382;5.260;2023-04-03T06:35:06;103404.75;;;6.65;100.00
44765;BME280;30484;52.382;5.260;2023-04-03T06:37:35;103411.06;;;6.85;100.00
44765;BME280;30484;52.382;5.260;2023-04-03T06:40:07;103419.31;;;7.25;100.00
44765;BME280;30484;52.382;5.260;2023-04-03T06:42:36;103414.88;;;7.34;100.00
44765;BME280;30484;52.382;5.260;2023-04-03T06:45:06;103412.03;;;6.98;100.00
44765;BME280;30484;52.382;5.260;2023-04-03T06:47:36;103422.13;;;7.64;100.00
44765;BME280;30484;52.382;5.260;2023-04-03T06:50:05;103421.13;;;7.39;100.00
44765;BME280;30484;52.382;5.260;2023-04-03T06:52:35;103419.22;;;7.12;100.00
44765;BME280;30484;52.382;5.260;2023-04-03T06:55:07;103420.19;;;7.31;100.00
44765;BME280;30484;52.382;5.260;2023-04-03T06:57:36;103410.59;;;7.67;100.00
44765;BME280;30484;52.382;5.260;2023-04-03T07:00:07;103424.78;;;7.64;100.00
44765;BME280;30484;52.382;5.260;2023-04-03T07:02:36;103439.94;;;7.85;100.00
44765;BME280;30484;52.382;5.260;2023-04-03T07:05:05;103434.56;;;7.74;100.00
44765;BME280;30484;52.382;5.260;2023-04-03T07:07:34;103441.78;;;8.12;100.00
44765;BME280;30484;52.382;5.260;2023-04-03T07:10:03;103446.22;;;8.21;100.00
44765;BME280;30484;52.382;5.260;2023-04-03T07:12:33;103443.53;;;8.13;100.00
44765;BME280;30484;52.382;5.260;2023-04-03T07:15:02;103440.00;;;8.13;100.00
44765;BME280;30484;52.382;5.260;2023-04-03T07:17:31;103440.03;;;8.44;100.00
44765;BME280;30484;52.382;5.260;2023-04-03T07:20:00;103449.84;;;8.50;100.00
44765;BME280;30484;52.382;5.260;2023-04-03T07:22:29;103448.91;;;9.02;100.00
44765;BME280;30484;52.382;5.260;2023-04-03T07:24:57;103459.50;;;9.32;100.00
44765;BME280;30484;52.382;5.260;2023-04-03T07:27:26;103465.72;;;9.35;100.00
44765;BME280;30484;52.382;5.260;2023-04-03T07:29:56;103457.66;;;9.48;100.00
44765;BME280;30484;52.382;5.260;2023-04-03T07:32:25;103455.78;;;9.67;100.00
44765;BME280;30484;52.382;5.260;2023-04-03T07:34:53;103465.63;;;9.61;100.00
44765;BME280;30484;52.382;5.260;2023-04-03T07:37:22;103452.22;;;9.70;100.00
44765;BME280;30484;52.382;5.260;2023-04-03T07:39:50;103463.97;;;9.32;100.00
44765;BME280;30484;52.382;5.260;2023-04-03T07:42:18;103460.28;;;9.64;100.00
44765;BME280;30484;52.382;5.260;2023-04-03T07:44:47;103451.38;;;9.59;100.00
44765;BME280;30484;52.382;5.260;2023-04-03T07:47:16;103447.88;;;9.50;100.00
44765;BME280;30484;52.382;5.260;2023-04-03T07:49:45;103459.31;;;9.79;100.00
44765;BME280;30484;52.382;5.260;2023-04-03T07:52:14;103456.63;;;9.80;100.00
44765;BME280;30484;52.382;5.260;2023-04-03T07:54:45;103454.84;;;9.81;100.00
44765;BME280;30484;52.382;5.260;2023-04-03T07:57:13;103454.78;;;9.95;100.00
44765;BME280;30484;52.382;5.260;2023-04-03T07:59:42;103463.44;;;10.32;100.00
44765;BME280;30484;52.382;5.260;2023-04-03T08:02:11;103466.25;;;10.14;100.00
44765;BME280;30484;52.382;5.260;2023-04-03T08:04:40;103466.44;;;9.78;100.00
44765;BME280;30484;52.382;5.260;2023-04-03T08:07:09;103477.75;;;10.24;100.00
44765;BME280;30484;52.382;5.260;2023-04-03T08:09:37;103474.19;;;10.22;100.00
44765;BME280;30484;52.382;5.260;2023-04-03T08:12:06;103470.81;;;9.95;100.00
44765;BME280;30484;52.382;5.260;2023-04-03T08:14:34;103470.50;;;10.50;100.00
44765;BME280;30484;52.382;5.260;2023-04-03T08:17:03;103473.25;;;10.29;100.00
44765;BME280;30484;52.382;5.260;2023-04-03T08:19:32;103480.38;;;10.30;100.00
44765;BME280;30484;52.382;5.260;2023-04-03T08:22:01;103476.66;;;10.56;100.00
44765;BME280;30484;52.382;5.260;2023-04-03T08:24:30;103479.25;;;10.66;100.00
44765;BME280;30484;52.382;5.260;2023-04-03T08:26:59;103486.00;;;11.09;100.00
44765;BME280;30484;52.382;5.260;2023-04-03T08:29:28;103488.91;;;10.86;100.00
44765;BME280;30484;52.382;5.260;2023-04-03T08:31:58;103476.06;;;11.20;100.00
44765;BME280;30484;52.382;5.260;2023-04-03T08:34:26;103486.03;;;11.03;100.00
44765;BME280;30484;52.382;5.260;2023-04-03T08:36:55;103485.06;;;9.91;100.00
44765;BME280;30484;52.382;5.260;2023-04-03T08:39:25;103488.53;;;10.08;100.00
44765;BME280;30484;52.382;5.260;2023-04-03T08:41:56;103487.19;;;10.74;100.00
44765;BME280;30484;52.382;5.260;2023-04-03T08:44:31;103488.78;;;10.98;100.00
44765;BME280;30484;52.382;5.260;2023-04-03T08:47:17;103494.59;;;10.43;100.00
44765;BME280;30484;52.382;5.260;2023-04-03T08:49:49;103486.75;;;10.07;100.00
44765;BME280;30484;52.382;5.260;2023-04-03T08:52:27;103496.00;;;10.88;100.00
44765;BME280;30484;52.382;5.260;2023-04-03T08:55:02;103495.59;;;11.32;100.00
44765;BME280;30484;52.382;5.260;2023-04-03T08:57:35;103496.00;;;11.71;100.00
44765;BME280;30484;52.382;5.260;2023-04-03T09:00:13;103500.69;;;11.53;100.00
44765;BME280;30484;52.382;5.260;2023-04-03T09:02:47;103492.13;;;11.22;100.00
44765;BME280;30484;52.382;5.260;2023-04-03T09:05:17;103491.09;;;11.34;100.00
44765;BME280;30484;52.382;5.260;2023-04-03T09:07:55;103492.28;;;11.07;100.00
44765;BME280;30484;52.382;5.260;2023-04-03T09:10:31;103484.97;;;11.21;100.00
44765;BME280;30484;52.382;5.260;2023-04-03T09:13:08;103483.34;;;11.09;100.00
44765;BME280;30484;52.382;5.260;2023-04-03T09:15:41;103476.38;;;10.88;100.00
44765;BME280;30484;52.382;5.260;2023-04-03T09:18:16;103479.63;;;11.21;100.00
44765;BME280;30484;52.382;5.260;2023-04-03T09:20:57;103488.91;;;10.87;88.79
44765;BME280;30484;52.382;5.260;2023-04-03T09:23:36;103485.81;;;11.28;97.60
44765;BME280;30484;52.382;5.260;2023-04-03T09:26:13;103476.94;;;11.22;96.18
44765;BME280;30484;52.382;5.260;2023-04-03T09:28:43;103472.63;;;11.84;100.00
44765;BME280;30484;52.382;5.260;2023-04-03T09:31:22;103464.56;;;11.12;88.38
44765;BME280;30484;52.382;5.260;2023-04-03T09:33:55;103470.13;;;11.73;96.26
44765;BME280;30484;52.382;5.260;2023-04-03T09:36:43;103467.44;;;11.73;89.37
44765;BME280;30484;52.382;5.260;2023-04-03T09:39:15;103477.69;;;12.07;84.81
44765;BME280;30484;52.382;5.260;2023-04-03T09:41:58;103468.06;;;11.94;84.24
44765;BME280;30484;52.382;5.260;2023-04-03T09:44:30;103465.06;;;12.15;88.41
44765;BME280;30484;52.382;5.260;2023-04-03T09:47:00;103465.28;;;11.27;86.75
44765;BME280;30484;52.382;5.260;2023-04-03T09:49:45;103464.50;;;11.95;78.12
44765;BME280;30484;52.382;5.260;2023-04-03T09:52:23;103466.94;;;11.38;70.62
44765;BME280;30484;52.382;5.260;2023-04-03T09:54:52;103472.06;;;11.57;69.08
44765;BME280;30484;52.382;5.260;2023-04-03T09:57:22;103461.06;;;12.44;71.04
44765;BME280;30484;52.382;5.260;2023-04-03T09:59:58;103442.66;;;12.21;65.00
44765;BME280;30484;52.382;5.260;2023-04-03T10:02:36;103441.84;;;12.17;66.64
44765;BME280;30484;52.382;5.260;2023-04-03T10:05:37;103440.78;;;12.28;67.25
44765;BME280;30484;52.382;5.260;2023-04-03T10:08:19;103426.97;;;12.51;62.18
44765;BME280;30484;52.382;5.260;2023-04-03T10:11:07;103432.06;;;12.68;54.39
44765;BME280;30484;52.382;5.260;2023-04-03T10:13:54;103422.50;;;13.00;55.46
44765;BME280;30484;52.382;5.260;2023-04-03T10:16:34;103434.34;;;12.89;55.45
44765;BME280;30484;52.382;5.260;2023-04-03T10:19:35;103433.50;;;13.36;54.39
44765;BME280;30484;52.382;5.260;2023-04-03T10:22:18;103419.19;;;13.32;53.22
44765;BME280;30484;52.382;5.260;2023-04-03T10:25:08;103418.66;;;13.15;56.35
44765;BME280;30484;52.382;5.260;2023-04-03T10:27:52;103414.47;;;13.01;52.70
44765;BME280;30484;52.382;5.260;2023-04-03T10:30:34;103405.28;;;13.13;55.27
44765;BME280;30484;52.382;5.260;2023-04-03T10:33:30;103415.19;;;13.08;51.08
44765;BME280;30484;52.382;5.260;2023-04-03T10:36:12;103414.16;;;14.01;54.60
44765;BME280;30484;52.382;5.260;2023-04-03T10:38:54;103399.41;;;14.18;55.66
44765;BME280;30484;52.382;5.260;2023-04-03T10:41:37;103407.31;;;13.47;51.17
44765;BME280;30484;52.382;5.260;2023-04-03T10:44:19;103405.66;;;12.93;52.56
44765;BME280;30484;52.382;5.260;2023-04-03T10:46:53;103400.75;;;14.36;54.64
44765;BME280;30484;52.382;5.260;2023-04-03T10:49:36;103396.03;;;14.08;50.63
44765;BME280;30484;52.382;5.260;2023-04-03T10:52:17;103392.56;;;14.04;50.93
44765;BME280;30484;52.382;5.260;2023-04-03T10:54:59;103409.56;;;14.05;48.63
44765;BME280;30484;52.382;5.260;2023-04-03T10:57:31;103413.47;;;13.51;47.24
44765;BME280;30484;52.382;5.260;2023-04-03T11:00:04;103396.34;;;13.12;47.08
44765;BME280;30484;52.382;5.260;2023-04-03T11:02:38;103393.19;;;13.76;51.26
44765;BME280;30484;52.382;5.260;2023-04-03T11:05:21;103395.25;;;14.04;49.35
44765;BME280;30484;52.382;5.260;2023-04-03T11:07:56;103391.75;;;13.61;47.34
44765;BME280;30484;52.382;5.260;2023-04-03T11:10:35;103395.75;;;13.42;48.46
44765;BME280;30484;52.382;5.260;2023-04-03T11:13:11;103392.94;;;13.89;47.39
44765;BME280;30484;52.382;5.260;2023-04-03T11:15:43;103390.28;;;13.87;47.06
44765;BME280;30484;52.382;5.260;2023-04-03T11:18:19;103396.06;;;13.69;45.55
44765;BME280;30484;52.382;5.260;2023-04-03T11:20:58;103402.84;;;13.85;46.84
44765;BME280;30484;52.382;5.260;2023-04-03T11:23:33;103391.25;;;13.44;46.42
44765;BME280;30484;52.382;5.260;2023-04-03T11:26:18;103393.22;;;14.14;46.17
44765;BME280;30484;52.382;5.260;2023-04-03T11:28:53;103386.28;;;14.41;47.03
44765;BME280;30484;52.382;5.260;2023-04-03T11:31:38;103381.97;;;15.01;47.78
44765;BME280;30484;52.382;5.260;2023-04-03T11:34:25;103371.09;;;14.03;47.35
44765;BME280;30484;52.382;5.260;2023-04-03T11:36:59;103383.16;;;14.22;45.33
44765;BME280;30484;52.382;5.260;2023-04-03T11:39:31;103380.31;;;14.28;45.87
44765;BME280;30484;52.382;5.260;2023-04-03T11:42:15;103378.94;;;14.46;45.86
44765;BME280;30484;52.382;5.260;2023-04-03T11:44:45;103380.44;;;14.22;45.58
44765;BME280;30484;52.382;5.260;2023-04-03T11:47:48;103378.59;;;13.90;45.67
44765;BME280;30484;52.382;5.260;2023-04-03T11:50:43;103366.03;;;14.62;47.70
44765;BME280;30484;52.382;5.260;2023-04-03T11:53:34;103362.44;;;15.25;46.37
44765;BME280;30484;52.382;5.260;2023-04-03T11:56:27;103377.66;;;14.61;44.85
44765;BME280;30484;52.382;5.260;2023-04-03T11:59:23;103357.63;;;15.36;47.79
44765;BME280;30484;52.382;5.260;2023-04-03T12:01:56;103361.84;;;15.46;45.32
44765;BME280;30484;52.382;5.260;2023-04-03T12:04:27;103353.88;;;15.42;45.12
44765;BME280;30484;52.382;5.260;2023-04-03T12:07:25;103341.88;;;16.09;44.69
44765;BME280;30484;52.382;5.260;2023-04-03T12:09:58;103325.91;;;16.29;45.36
44765;BME280;30484;52.382;5.260;2023-04-03T12:12:37;103330.28;;;15.50;45.86
44765;BME280;30484;52.382;5.260;2023-04-03T12:21:20;103311.06;;;16.16;45.62
44765;BME280;30484;52.382;5.260;2023-04-03T12:24:03;103316.88;;;16.55;46.13
44765;BME280;30484;52.382;5.260;2023-04-03T12:26:41;103323.31;;;15.71;43.41
44765;BME280;30484;52.382;5.260;2023-04-03T12:29:20;103304.47;;;16.50;45.66
44765;BME280;30484;52.382;5.260;2023-04-03T12:32:05;103296.84;;;16.86;44.16
44765;BME280;30484;52.382;5.260;2023-04-03T12:34:54;103302.25;;;16.36;44.90
44765;BME280;30484;52.382;5.260;2023-04-03T12:40:49;103298.31;;;15.94;44.50
44765;BME280;30484;52.382;5.260;2023-04-03T12:43:43;103286.38;;;16.01;44.11
44765;BME280;30484;52.382;5.260;2023-04-03T12:46:19;103287.69;;;15.90;44.49
44765;BME280;30484;52.382;5.260;2023-04-03T12:48:52;103287.31;;;17.01;46.66
44765;BME280;30484;52.382;5.260;2023-04-03T12:51:30;103281.84;;;16.54;44.48
44765;BME280;30484;52.382;5.260;2023-04-03T12:54:12;103266.97;;;16.17;44.60
44765;BME280;30484;52.382;5.260;2023-04-03T12:56:42;103285.13;;;16.87;45.31
44765;BME280;30484;52.382;5.260;2023-04-03T12:59:16;103279.66;;;17.13;45.24
44765;BME280;30484;52.382;5.260;2023-04-03T13:01:54;103270.75;;;17.77;45.12
44765;BME280;30484;52.382;5.260;2023-04-03T13:04:23;103260.63;;;17.16;44.22
44765;BME280;30484;52.382;5.260;2023-04-03T13:06:52;103270.25;;;18.11;45.55
44765;BME280;30484;52.382;5.260;2023-04-03T13:09:25;103284.84;;;17.85;45.26
44765;BME280;30484;52.382;5.260;2023-04-03T13:12:00;103269.19;;;17.93;44.27
44765;BME280;30484;52.382;5.260;2023-04-03T13:14:30;103266.03;;;17.82;41.97
44765;BME280;30484;52.382;5.260;2023-04-03T13:17:06;103254.16;;;17.64;41.96
44765;BME280;30484;52.382;5.260;2023-04-03T13:19:38;103259.00;;;18.21;43.17
44765;BME280;30484;52.382;5.260;2023-04-03T13:22:16;103265.91;;;18.07;44.44
44765;BME280;30484;52.382;5.260;2023-04-03T13:24:50;103266.03;;;18.04;42.49
44765;BME280;30484;52.382;5.260;2023-04-03T13:27:20;103258.03;;;18.01;43.73